Time;durP1;ratioP1;P1;durP2;ratioP2;P2;SDS_P1;SDS_P2;PMS_P1;PMS_P2;Temp;Humidity;BMP_temperature;BMP_pressure;BME280_temperature;BME280_humidity;BME280_pressure;Samples;Min_cycle;Max_cycle;Signal;HPM_P1;HPM_P2
2022/11/26 00:00:50;;;;;;;;;;;10.20;75.10;;;;;;5060174;28;19920;-79
2022/11/26 00:03:16;;;;;;;;;;;10.20;75.10;;;;;;5096794;28;20011;-79
2022/11/26 00:05:42;;;;;;;;;;;10.10;75.00;;;;;;5074844;28;20280;-80
2022/11/26 00:08:14;;;;;;;;;;;10.10;75.10;;;;;;5093175;28;19920;-80
2022/11/26 00:10:40;;;;;;;;;;;10.10;75.10;;;;;;5079741;28;20058;-79
2022/11/26 00:13:13;;;;;;;;;;;10.10;75.10;;;;;;5059475;28;21860;-79
2022/11/26 00:15:38;;;;;;;;;;;10.10;75.10;;;;;;5081201;28;20314;-79
2022/11/26 00:18:04;;;;;;;;;;;10.00;75.00;;;;;;5081445;28;19916;-81
2022/11/26 00:20:30;;;;;;;;;;;10.00;75.10;;;;;;5090382;28;19916;-81
2022/11/26 00:23:03;;;;;;;;;;;9.90;75.00;;;;;;5070025;28;20007;-79
2022/11/26 00:25:45;;;;;;;;;;;10.00;75.10;;;;;;5077785;28;19912;-80
2022/11/26 00:28:30;;;;;;;;;;;9.90;75.10;;;;;;5078879;28;19919;-80
2022/11/26 00:30:56;;;;;;;;;;;9.90;75.10;;;;;;5076055;28;19921;-80
2022/11/26 00:33:23;;;;;;;;;;;9.90;75.10;;;;;;5080178;28;20379;-79
2022/11/26 00:35:51;;;;;;;;;;;9.90;75.10;;;;;;5088608;28;20415;-80
2022/11/26 00:38:18;;;;;;;;;;;9.80;75.00;;;;;;5080624;28;21570;-80
2022/11/26 00:40:44;;;;;;;;;;;9.80;75.10;;;;;;5081581;28;19912;-81
2022/11/26 00:43:10;;;;;;;;;;;9.80;75.10;;;;;;5081991;28;19962;-80
2022/11/26 00:45:36;;;;;;;;;;;9.80;75.10;;;;;;5053105;28;20298;-79
2022/11/26 00:48:02;;;;;;;;;;;9.80;75.10;;;;;;5065140;28;19920;-79
2022/11/26 00:50:31;;;;;;;;;;;9.80;75.10;;;;;;5057371;28;19920;-80
2022/11/26 00:52:57;;;;;;;;;;;9.70;75.10;;;;;;5089986;28;19920;-80
2022/11/26 00:55:33;;;;;;;;;;;9.70;75.10;;;;;;5056432;28;19925;-79
2022/11/26 00:57:58;;;;;;;;;;;9.70;75.10;;;;;;5066552;28;19919;-79
2022/11/26 01:00:25;;;;;;;;;;;9.70;75.10;;;;;;5088891;28;19916;-79
2022/11/26 01:02:51;;;;;;;;;;;9.70;75.10;;;;;;5072855;28;20636;-80
2022/11/26 01:05:17;;;;;;;;;;;9.60;75.10;;;;;;5072563;28;19912;-81
2022/11/26 01:07:44;;;;;;;;;;;9.60;75.10;;;;;;5078126;28;19919;-81
2022/11/26 01:10:14;;;;;;;;;;;9.60;75.10;;;;;;5053487;28;20579;-81
2022/11/26 01:12:40;;;;;;;;;;;9.60;75.10;;;;;;5084474;28;19916;-79
2022/11/26 01:15:05;;;;;;;;;;;9.60;75.20;;;;;;5082558;28;20463;-79
2022/11/26 01:17:31;;;;;;;;;;;9.60;75.20;;;;;;5067345;28;19918;-80
2022/11/26 01:19:57;;;;;;;;;;;9.50;75.10;;;;;;5074225;28;19916;-79
2022/11/26 01:22:22;;;;;;;;;;;9.60;75.20;;;;;;5069962;28;19927;-80
2022/11/26 01:24:48;;;;;;;;;;;9.50;75.10;;;;;;5065576;28;20013;-83
2022/11/26 01:27:14;;;;;;;;;;;9.50;75.20;;;;;;5071000;28;19961;-80
2022/11/26 01:29:40;;;;;;;;;;;9.50;75.20;;;;;;5070955;28;20005;-81
2022/11/26 01:32:05;;;;;;;;;;;9.50;75.20;;;;;;5060028;28;19920;-80
2022/11/26 01:34:31;;;;;;;;;;;9.50;75.20;;;;;;5074508;28;19916;-80
2022/11/26 01:36:56;;;;;;;;;;;9.50;75.20;;;;;;5067928;28;19924;-80
2022/11/26 01:39:22;;;;;;;;;;;9.40;75.10;;;;;;5081423;28;19955;-80
2022/11/26 01:42:23;;;;;;;;;;;9.40;75.10;;;;;;5078466;28;19947;-80
2022/11/26 01:44:49;;;;;;;;;;;9.40;75.20;;;;;;4964799;28;19914;-79
2022/11/26 01:47:23;;;;;;;;;;;9.40;75.20;;;;;;5067025;28;19923;-80
2022/11/26 01:50:07;;;;;;;;;;;9.40;75.20;;;;;;5071545;28;19920;-79
2022/11/26 01:52:33;;;;;;;;;;;9.30;75.20;;;;;;5066862;28;19916;-79
2022/11/26 01:54:59;;;;;;;;;;;9.40;75.20;;;;;;5092195;28;20616;-81
2022/11/26 01:57:27;;;;;;;;;;;9.30;75.20;;;;;;5068604;28;19923;-80
2022/11/26 01:59:54;;;;;;;;;;;9.30;75.20;;;;;;5092878;28;19916;-79
2022/11/26 02:02:22;;;;;;;;;;;9.30;75.20;;;;;;5077634;28;19916;-80
2022/11/26 02:04:59;;;;;;;;;;;9.30;75.20;;;;;;5057947;28;19912;-79
2022/11/26 02:07:25;;;;;;;;;;;9.30;75.20;;;;;;5073458;28;19919;-82
2022/11/26 02:09:50;;;;;;;;;;;9.20;75.10;;;;;;5073622;28;19928;-79
2022/11/26 02:12:16;;;;;;;;;;;9.20;75.10;;;;;;5077211;28;20014;-79
2022/11/26 02:14:42;;;;;;;;;;;9.20;75.10;;;;;;5082188;28;19963;-80
2022/11/26 02:17:08;;;;;;;;;;;9.20;75.20;;;;;;5063963;28;19920;-80
2022/11/26 02:19:53;;;;;;;;;;;9.20;75.10;;;;;;5070893;28;19919;-80
2022/11/26 02:22:37;;;;;;;;;;;9.10;75.10;;;;;;5067182;28;19912;-79
2022/11/26 02:25:22;;;;;;;;;;;9.10;75.10;;;;;;5084951;28;19912;-80
2022/11/26 02:27:51;;;;;;;;;;;9.10;75.10;;;;;;5069752;28;19912;-80
2022/11/26 02:30:16;;;;;;;;;;;9.10;75.20;;;;;;5072916;28;19916;-79
2022/11/26 02:33:01;;;;;;;;;;;9.10;75.20;;;;;;5060479;28;19924;-80
2022/11/26 02:35:31;;;;;;;;;;;9.00;75.20;;;;;;5071937;28;19920;-81
2022/11/26 02:37:59;;;;;;;;;;;9.00;75.20;;;;;;5074123;28;19926;-83
2022/11/26 02:40:25;;;;;;;;;;;9.00;75.20;;;;;;5082412;28;19916;-79
2022/11/26 02:42:51;;;;;;;;;;;9.00;75.20;;;;;;5052125;28;19916;-82
2022/11/26 02:45:19;;;;;;;;;;;9.00;75.20;;;;;;5071358;28;20274;-79
2022/11/26 02:47:46;;;;;;;;;;;8.90;75.10;;;;;;5068716;28;19920;-80
2022/11/26 02:50:14;;;;;;;;;;;8.90;75.10;;;;;;5051390;28;20284;-79
2022/11/26 02:52:40;;;;;;;;;;;9.00;75.20;;;;;;5064975;28;19924;-80
2022/11/26 02:55:07;;;;;;;;;;;8.90;75.10;;;;;;5065148;28;20386;-79
2022/11/26 02:57:36;;;;;;;;;;;8.90;75.10;;;;;;5054183;28;19927;-80
2022/11/26 03:00:03;;;;;;;;;;;8.90;75.20;;;;;;5052663;28;19926;-84
2022/11/26 03:02:32;;;;;;;;;;;8.80;75.10;;;;;;5072564;28;19916;-79
2022/11/26 03:04:59;;;;;;;;;;;8.80;75.10;;;;;;5072693;28;20013;-80
2022/11/26 03:07:27;;;;;;;;;;;8.80;75.80;;;;;;5066380;28;19993;-80
2022/11/26 03:09:54;;;;;;;;;;;8.80;75.10;;;;;;5058892;28;19916;-79
2022/11/26 03:12:20;;;;;;;;;;;8.80;75.20;;;;;;5065998;28;19977;-79
2022/11/26 03:14:46;;;;;;;;;;;8.80;75.20;;;;;;5068519;28;19956;-80
2022/11/26 03:17:12;;;;;;;;;;;8.80;75.20;;;;;;5088785;28;20284;-80
2022/11/26 03:19:37;;;;;;;;;;;8.70;75.20;;;;;;5065749;28;20020;-79
2022/11/26 03:22:03;;;;;;;;;;;8.70;75.10;;;;;;5087010;28;19912;-80
2022/11/26 03:24:29;;;;;;;;;;;8.70;75.20;;;;;;5084310;28;20276;-78
2022/11/26 03:26:55;;;;;;;;;;;8.70;75.20;;;;;;5081944;28;19917;-79
2022/11/26 03:29:20;;;;;;;;;;;8.60;75.10;;;;;;5055087;28;19928;-80
2022/11/26 03:31:46;;;;;;;;;;;8.70;75.20;;;;;;5070244;28;20353;-79
2022/11/26 03:34:11;;;;;;;;;;;8.60;75.10;;;;;;5068981;28;19959;-80
2022/11/26 03:36:37;;;;;;;;;;;8.60;75.10;;;;;;5040785;28;19955;-81
2022/11/26 03:39:03;;;;;;;;;;;8.60;75.20;;;;;;5068303;28;19974;-80
2022/11/26 03:41:29;;;;;;;;;;;8.60;75.20;;;;;;5050410;28;19913;-79
2022/11/26 03:43:54;;;;;;;;;;;8.60;75.20;;;;;;5067957;28;19924;-79
2022/11/26 03:46:20;;;;;;;;;;;8.60;75.20;;;;;;5082253;28;19964;-79
2022/11/26 03:48:45;;;;;;;;;;;8.50;75.20;;;;;;5069844;28;19947;-80
2022/11/26 03:51:11;;;;;;;;;;;8.50;75.20;;;;;;5055833;28;20326;-79
2022/11/26 03:53:37;;;;;;;;;;;8.50;75.20;;;;;;5054633;28;19921;-79
2022/11/26 03:56:02;;;;;;;;;;;8.50;75.20;;;;;;5066731;28;19942;-81
2022/11/26 03:58:28;;;;;;;;;;;8.50;75.20;;;;;;5077970;28;19966;-79
2022/11/26 04:00:54;;;;;;;;;;;8.50;75.20;;;;;;5076069;28;20268;-78
2022/11/26 04:03:19;;;;;;;;;;;8.50;75.20;;;;;;5074094;28;19970;-83
2022/11/26 04:05:45;;;;;;;;;;;8.40;75.20;;;;;;5053888;28;19916;-79
2022/11/26 04:08:10;;;;;;;;;;;8.40;75.20;;;;;;5068241;28;19916;-79
2022/11/26 04:10:36;;;;;;;;;;;8.40;75.20;;;;;;5057943;28;19959;-79
2022/11/26 04:13:02;;;;;;;;;;;8.40;75.20;;;;;;5092045;28;20748;-80
2022/11/26 04:15:27;;;;;;;;;;;8.40;75.20;;;;;;5070490;28;19916;-79
2022/11/26 04:17:53;;;;;;;;;;;8.40;75.20;;;;;;5051445;28;19916;-79
2022/11/26 04:20:18;;;;;;;;;;;8.40;75.20;;;;;;5089665;28;19958;-80
2022/11/26 04:22:44;;;;;;;;;;;8.40;75.30;;;;;;5054280;28;20369;-78
2022/11/26 04:25:10;;;;;;;;;;;8.30;75.20;;;;;;5089081;28;19939;-78
2022/11/26 04:27:36;;;;;;;;;;;8.30;75.20;;;;;;5060935;28;19917;-78
2022/11/26 04:30:02;;;;;;;;;;;8.30;75.20;;;;;;5073567;28;19931;-81
2022/11/26 04:32:28;;;;;;;;;;;8.30;75.20;;;;;;5086061;28;19935;-79
2022/11/26 04:34:53;;;;;;;;;;;8.30;75.20;;;;;;5061793;28;19916;-79
2022/11/26 04:37:19;;;;;;;;;;;8.30;75.20;;;;;;5081758;28;20343;-80
2022/11/26 04:39:45;;;;;;;;;;;8.30;75.20;;;;;;5083108;28;19924;-79
2022/11/26 04:42:10;;;;;;;;;;;8.30;75.20;;;;;;5078458;28;19920;-80
2022/11/26 04:44:36;;;;;;;;;;;8.30;75.20;;;;;;5066400;28;19912;-80
2022/11/26 04:47:01;;;;;;;;;;;8.30;75.20;;;;;;5072141;28;19920;-81
2022/11/26 04:49:27;;;;;;;;;;;8.20;75.20;;;;;;5062604;28;19926;-80
2022/11/26 04:51:53;;;;;;;;;;;8.20;75.20;;;;;;5056305;28;19927;-79
2022/11/26 04:54:18;;;;;;;;;;;8.20;75.20;;;;;;5077198;28;19916;-80
2022/11/26 04:56:44;;;;;;;;;;;8.20;75.20;;;;;;5088923;28;19954;-79
2022/11/26 04:59:09;;;;;;;;;;;8.20;75.20;;;;;;5080792;28;19939;-79
2022/11/26 05:01:35;;;;;;;;;;;8.10;75.20;;;;;;5060006;28;20487;-80
2022/11/26 05:04:01;;;;;;;;;;;8.20;75.20;;;;;;5077021;28;19982;-79
2022/11/26 05:06:26;;;;;;;;;;;8.10;75.10;;;;;;5081496;28;19912;-79
2022/11/26 05:08:52;;;;;;;;;;;8.10;75.10;;;;;;5065770;28;19927;-81
2022/11/26 05:11:17;;;;;;;;;;;8.10;75.10;;;;;;5079415;28;19935;-80
2022/11/26 05:13:43;;;;;;;;;;;8.10;75.10;;;;;;5063110;28;19964;-80
2022/11/26 05:16:09;;;;;;;;;;;8.10;75.20;;;;;;5060272;28;19916;-80
2022/11/26 05:18:34;;;;;;;;;;;8.10;75.10;;;;;;5044064;28;20011;-79
2022/11/26 05:21:00;;;;;;;;;;;8.10;75.20;;;;;;5091431;28;20004;-79
2022/11/26 05:23:25;;;;;;;;;;;8.10;75.20;;;;;;5083719;28;19924;-80
2022/11/26 05:25:51;;;;;;;;;;;8.00;75.10;;;;;;5057488;28;19917;-79
2022/11/26 05:28:17;;;;;;;;;;;8.00;75.10;;;;;;5066628;28;19916;-78
2022/11/26 05:30:42;;;;;;;;;;;8.00;75.10;;;;;;5074011;28;19929;-78
2022/11/26 05:33:08;;;;;;;;;;;8.00;75.10;;;;;;5073511;28;19973;-78
2022/11/26 05:35:33;;;;;;;;;;;8.00;75.10;;;;;;5064253;28;19919;-80
2022/11/26 05:37:59;;;;;;;;;;;8.00;75.10;;;;;;5055919;28;20007;-79
2022/11/26 05:40:25;;;;;;;;;;;7.90;75.10;;;;;;5053495;28;19999;-79
2022/11/26 05:42:50;;;;;;;;;;;7.90;75.10;;;;;;5068337;28;19916;-79
2022/11/26 05:45:16;;;;;;;;;;;7.90;75.10;;;;;;5038594;28;19944;-80
2022/11/26 05:47:42;;;;;;;;;;;7.90;75.10;;;;;;5089440;28;19916;-78
2022/11/26 05:50:07;;;;;;;;;;;7.90;75.70;;;;;;5076077;28;19917;-78
2022/11/26 05:52:33;;;;;;;;;;;7.90;75.10;;;;;;5077207;28;19920;-80
2022/11/26 05:54:59;;;;;;;;;;;7.90;75.10;;;;;;5070420;28;19912;-78
2022/11/26 05:57:24;;;;;;;;;;;7.90;75.10;;;;;;5100459;28;19923;-79
2022/11/26 05:59:50;;;;;;;;;;;7.80;75.10;;;;;;5069627;28;19920;-79
2022/11/26 06:02:16;;;;;;;;;;;7.80;75.10;;;;;;5080585;28;19927;-79
2022/11/26 06:04:42;;;;;;;;;;;7.80;75.10;;;;;;5062328;28;19922;-79
2022/11/26 06:07:08;;;;;;;;;;;7.80;75.10;;;;;;5088142;28;20284;-79
2022/11/26 06:09:34;;;;;;;;;;;7.80;75.10;;;;;;5066440;28;19916;-79
2022/11/26 06:11:59;;;;;;;;;;;7.80;75.10;;;;;;5065716;28;19927;-79
2022/11/26 06:14:25;;;;;;;;;;;7.80;75.10;;;;;;5061416;28;19957;-79
2022/11/26 06:16:51;;;;;;;;;;;7.80;75.10;;;;;;5075273;28;19964;-79
2022/11/26 06:19:16;;;;;;;;;;;7.70;75.10;;;;;;5075597;28;19916;-80
2022/11/26 06:21:42;;;;;;;;;;;7.70;75.10;;;;;;5075402;28;19923;-79
2022/11/26 06:24:07;;;;;;;;;;;7.70;75.10;;;;;;5062838;28;19917;-79
2022/11/26 06:26:33;;;;;;;;;;;7.70;75.10;;;;;;5055995;28;19939;-80
2022/11/26 06:28:59;;;;;;;;;;;7.70;75.10;;;;;;5055633;28;20023;-81
2022/11/26 06:31:24;;;;;;;;;;;7.70;75.10;;;;;;5065248;28;20318;-79
2022/11/26 06:33:54;;;;;;;;;;;7.70;75.10;;;;;;5081074;28;19916;-79
2022/11/26 06:36:19;;;;;;;;;;;7.60;75.00;;;;;;5055597;28;19931;-79
2022/11/26 06:38:45;;;;;;;;;;;7.60;75.00;;;;;;5052724;28;19912;-79
2022/11/26 06:41:11;;;;;;;;;;;7.60;75.00;;;;;;5030714;28;19921;-79
2022/11/26 06:43:36;;;;;;;;;;;7.60;75.10;;;;;;5048999;28;19917;-79
2022/11/26 06:46:04;;;;;;;;;;;7.60;75.00;;;;;;5039144;28;19978;-80
2022/11/26 06:48:30;;;;;;;;;;;7.60;75.10;;;;;;5058067;28;19913;-79
2022/11/26 06:50:55;;;;;;;;;;;7.60;75.10;;;;;;5034570;28;20011;-79
2022/11/26 06:53:21;;;;;;;;;;;7.60;75.10;;;;;;5052507;28;19944;-79
2022/11/26 06:55:47;;;;;;;;;;;7.50;75.00;;;;;;5041126;28;19948;-79
2022/11/26 06:58:13;;;;;;;;;;;7.50;75.00;;;;;;5047273;28;20407;-79
2022/11/26 07:00:39;;;;;;;;;;;7.50;75.00;;;;;;5048024;28;19924;-80
2022/11/26 07:03:05;;;;;;;;;;;7.50;75.00;;;;;;5045226;28;19913;-79
2022/11/26 07:05:32;;;;;;;;;;;7.50;75.00;;;;;;5043216;28;19913;-80
2022/11/26 07:07:58;;;;;;;;;;;7.50;75.10;;;;;;5049854;28;19989;-79
2022/11/26 07:10:23;;;;;;;;;;;7.50;75.10;;;;;;5051151;28;20081;-80
2022/11/26 07:12:49;;;;;;;;;;;7.40;75.00;;;;;;5044759;28;19921;-80
2022/11/26 07:15:15;;;;;;;;;;;7.40;75.00;;;;;;5032940;28;20370;-79
2022/11/26 07:17:40;;;;;;;;;;;7.40;75.00;;;;;;5051284;28;20381;-79
2022/11/26 07:20:06;;;;;;;;;;;7.40;75.00;;;;;;5032612;28;20289;-80
2022/11/26 07:22:33;;;;;;;;;;;7.40;75.00;;;;;;5052974;28;19983;-79
2022/11/26 07:24:58;;;;;;;;;;;7.40;75.00;;;;;;5048800;28;19913;-79
2022/11/26 07:27:24;;;;;;;;;;;7.40;75.00;;;;;;5048030;28;20019;-80
2022/11/26 07:29:50;;;;;;;;;;;7.30;75.00;;;;;;5030587;28;20366;-80
2022/11/26 07:32:16;;;;;;;;;;;7.40;75.00;;;;;;5049285;28;19966;-79
2022/11/26 07:34:41;;;;;;;;;;;7.30;75.00;;;;;;5033945;28;20266;-79
2022/11/26 07:37:07;;;;;;;;;;;7.40;75.00;;;;;;5030345;28;19964;-79
2022/11/26 07:39:33;;;;;;;;;;;7.30;75.00;;;;;;5030638;28;19939;-79
2022/11/26 07:41:58;;;;;;;;;;;7.30;75.00;;;;;;5047897;28;19921;-80
2022/11/26 07:44:24;;;;;;;;;;;7.30;75.00;;;;;;5046401;28;19917;-79
2022/11/26 07:46:49;;;;;;;;;;;7.30;75.00;;;;;;5048561;28;19921;-80
2022/11/26 07:49:15;;;;;;;;;;;7.30;75.10;;;;;;5032007;28;20301;-80
2022/11/26 07:51:41;;;;;;;;;;;7.30;75.00;;;;;;5049455;28;19936;-79
2022/11/26 07:54:07;;;;;;;;;;;7.30;75.10;;;;;;5013437;28;20443;-79
2022/11/26 07:56:33;;;;;;;;;;;7.30;75.10;;;;;;5055598;28;20007;-79
2022/11/26 07:58:59;;;;;;;;;;;7.20;75.00;;;;;;5049777;28;19936;-81
2022/11/26 08:01:27;;;;;;;;;;;7.20;75.00;;;;;;5054857;28;19913;-79
2022/11/26 08:03:52;;;;;;;;;;;7.20;75.10;;;;;;5056227;28;19923;-78
2022/11/26 08:06:20;;;;;;;;;;;7.20;75.10;;;;;;5052205;28;20281;-80
2022/11/26 08:08:45;;;;;;;;;;;7.20;75.10;;;;;;5053204;28;20369;-79
2022/11/26 08:11:22;;;;;;;;;;;7.20;75.00;;;;;;5038337;28;19925;-80
2022/11/26 08:13:48;;;;;;;;;;;7.20;75.10;;;;;;5054933;28;19919;-81
2022/11/26 08:16:14;;;;;;;;;;;7.20;75.10;;;;;;5036977;28;20349;-79
2022/11/26 08:18:39;;;;;;;;;;;7.20;75.10;;;;;;5053256;28;19963;-82
2022/11/26 08:21:05;;;;;;;;;;;7.20;75.10;;;;;;5058775;28;19925;-80
2022/11/26 08:23:31;;;;;;;;;;;7.20;75.10;;;;;;5037222;28;20358;-80
2022/11/26 08:25:57;;;;;;;;;;;7.20;75.10;;;;;;5037435;28;19917;-81
2022/11/26 08:28:23;;;;;;;;;;;7.20;75.10;;;;;;5051460;28;19917;-79
2022/11/26 08:30:49;;;;;;;;;;;7.20;75.10;;;;;;5050852;28;19939;-80
2022/11/26 08:33:14;;;;;;;;;;;7.20;75.10;;;;;;5035809;28;20361;-81
2022/11/26 08:35:40;;;;;;;;;;;7.10;75.10;;;;;;5047131;28;19932;-79
2022/11/26 08:38:06;;;;;;;;;;;7.20;75.10;;;;;;5048619;28;19964;-80
2022/11/26 08:40:31;;;;;;;;;;;7.10;75.10;;;;;;5045544;28;19967;-80
2022/11/26 08:42:57;;;;;;;;;;;7.10;75.10;;;;;;5044592;28;19917;-81
2022/11/26 08:45:23;;;;;;;;;;;7.20;75.20;;;;;;5054198;28;19917;-80
2022/11/26 08:47:48;;;;;;;;;;;7.20;75.20;;;;;;5044954;28;19920;-80
2022/11/26 08:50:15;;;;;;;;;;;7.10;75.10;;;;;;5041730;28;19924;-79
2022/11/26 08:52:41;;;;;;;;;;;7.20;75.20;;;;;;5052890;28;19927;-79
2022/11/26 08:55:07;;;;;;;;;;;7.10;75.10;;;;;;5047794;28;19917;-78
2022/11/26 08:57:32;;;;;;;;;;;7.10;75.20;;;;;;5057501;28;20425;-79
2022/11/26 08:59:58;;;;;;;;;;;7.10;75.20;;;;;;5050070;28;20362;-81
2022/11/26 09:02:24;;;;;;;;;;;7.10;75.20;;;;;;5034415;28;20420;-80
2022/11/26 09:04:50;;;;;;;;;;;7.10;75.20;;;;;;5052194;28;20011;-81
2022/11/26 09:07:16;;;;;;;;;;;7.10;75.20;;;;;;5052017;28;19920;-81
2022/11/26 09:09:41;;;;;;;;;;;7.10;75.80;;;;;;5038917;28;19921;-79
2022/11/26 09:12:07;;;;;;;;;;;7.10;75.20;;;;;;5047000;28;19975;-80
2022/11/26 09:14:37;;;;;;;;;;;7.20;75.30;;;;;;5033392;28;19921;-80
2022/11/26 09:17:03;;;;;;;;;;;7.10;75.30;;;;;;5053974;28;19978;-80
2022/11/26 09:19:29;;;;;;;;;;;7.20;75.30;;;;;;5053988;28;19956;-79
2022/11/26 09:21:55;;;;;;;;;;;7.20;75.30;;;;;;5038484;28;19969;-78
2022/11/26 09:24:21;;;;;;;;;;;7.20;75.30;;;;;;5050481;28;19921;-80
2022/11/26 09:26:47;;;;;;;;;;;7.20;75.30;;;;;;5056134;28;19917;-80
2022/11/26 09:29:14;;;;;;;;;;;7.20;75.40;;;;;;5032441;28;20549;-81
2022/11/26 09:31:40;;;;;;;;;;;7.20;75.40;;;;;;5046616;28;20662;-80
2022/11/26 09:34:06;;;;;;;;;;;7.20;75.40;;;;;;5049068;28;20324;-80
2022/11/26 09:36:31;;;;;;;;;;;7.20;75.40;;;;;;5035866;28;19925;-80
2022/11/26 09:38:58;;;;;;;;;;;7.20;75.40;;;;;;5034060;28;19917;-81
2022/11/26 09:41:23;;;;;;;;;;;7.20;75.40;;;;;;5055624;28;19958;-79
2022/11/26 09:43:58;;;;;;;;;;;7.30;75.50;;;;;;5033969;28;19917;-79
2022/11/26 09:46:30;;;;;;;;;;;7.30;75.50;;;;;;5051630;28;19964;-79
2022/11/26 09:48:58;;;;;;;;;;;7.30;75.50;;;;;;5050932;28;19919;-79
2022/11/26 09:51:24;;;;;;;;;;;7.30;75.50;;;;;;5054059;28;19931;-80
2022/11/26 09:53:50;;;;;;;;;;;7.30;75.50;;;;;;5045693;28;19919;-80
2022/11/26 09:56:22;;;;;;;;;;;7.30;75.50;;;;;;5051704;28;20008;-80
2022/11/26 09:59:10;;;;;;;;;;;7.40;75.60;;;;;;5043802;28;19919;-80
2022/11/26 10:01:36;;;;;;;;;;;7.40;75.60;;;;;;5052746;28;20361;-80
2022/11/26 10:04:05;;;;;;;;;;;7.40;75.60;;;;;;5035215;28;19917;-80
2022/11/26 10:06:45;;;;;;;;;;;7.50;75.70;;;;;;5054420;28;20019;-80
2022/11/26 10:09:20;;;;;;;;;;;7.50;75.70;;;;;;5050976;28;19951;-81
2022/11/26 10:11:56;;;;;;;;;;;7.50;75.70;;;;;;5056455;28;19917;-80
2022/11/26 10:14:24;;;;;;;;;;;7.50;75.70;;;;;;5035163;28;19913;-80
2022/11/26 10:17:00;;;;;;;;;;;7.50;75.70;;;;;;5054563;28;19917;-81
2022/11/26 10:19:35;;;;;;;;;;;7.60;75.80;;;;;;5049898;28;20012;-79
2022/11/26 10:22:03;;;;;;;;;;;7.60;75.80;;;;;;5057039;28;20006;-80
2022/11/26 10:24:30;;;;;;;;;;;7.60;75.80;;;;;;5051930;28;20281;-79
2022/11/26 10:26:58;;;;;;;;;;;7.60;75.70;;;;;;5054594;28;19919;-79
2022/11/26 10:29:25;;;;;;;;;;;7.70;75.80;;;;;;5043720;28;19916;-79
2022/11/26 10:31:57;;;;;;;;;;;7.70;75.80;;;;;;5043213;28;19928;-81
2022/11/26 10:34:37;;;;;;;;;;;7.70;75.80;;;;;;5055169;28;19924;-81
2022/11/26 10:37:03;;;;;;;;;;;7.80;75.80;;;;;;5051008;28;19924;-79
2022/11/26 10:39:28;;;;;;;;;;;7.80;75.80;;;;;;5051178;28;19916;-79
2022/11/26 10:41:54;;;;;;;;;;;7.80;75.80;;;;;;5051235;28;19919;-80
2022/11/26 10:44:30;;;;;;;;;;;7.80;75.90;;;;;;5058591;28;20276;-79
2022/11/26 10:46:56;;;;;;;;;;;7.90;75.90;;;;;;5058732;28;19995;-79
2022/11/26 10:49:28;;;;;;;;;;;7.90;76.00;;;;;;5035732;28;19920;-79
2022/11/26 10:52:02;;;;;;;;;;;8.00;76.00;;;;;;5051541;28;19917;-79
2022/11/26 10:54:31;;;;;;;;;;;8.00;76.00;;;;;;5066913;28;19951;-79
2022/11/26 10:57:00;;;;;;;;;;;8.00;76.00;;;;;;5051437;28;19962;-79
2022/11/26 10:59:28;;;;;;;;;;;8.10;76.10;;;;;;5050474;28;20580;-80
2022/11/26 11:01:59;;;;;;;;;;;8.10;76.00;;;;;;5037766;28;19923;-80
2022/11/26 11:04:27;;;;;;;;;;;8.10;76.00;;;;;;5052211;28;20017;-80
2022/11/26 11:06:53;;;;;;;;;;;8.10;76.00;;;;;;5052730;28;19912;-79
2022/11/26 11:09:22;;;;;;;;;;;8.20;76.10;;;;;;5032584;28;19928;-83
2022/11/26 11:12:06;;;;;;;;;;;8.20;76.10;;;;;;5049248;28;20361;-79
2022/11/26 11:14:31;;;;;;;;;;;8.20;76.10;;;;;;5051867;28;19917;-80
2022/11/26 11:16:57;;;;;;;;;;;8.30;76.10;;;;;;5030041;28;20001;-80
2022/11/26 11:19:25;;;;;;;;;;;8.30;76.10;;;;;;5053195;28;19924;-80
2022/11/26 11:21:50;;;;;;;;;;;8.40;76.20;;;;;;5054861;28;19967;-80
2022/11/26 11:24:19;;;;;;;;;;;8.40;76.10;;;;;;5034787;28;19945;-80
2022/11/26 11:26:46;;;;;;;;;;;8.40;76.10;;;;;;5050104;28;19923;-80
2022/11/26 11:29:27;;;;;;;;;;;8.40;76.20;;;;;;5055079;28;20004;-79
2022/11/26 11:31:54;;;;;;;;;;;8.50;76.20;;;;;;5056421;28;19927;-78
2022/11/26 11:34:26;;;;;;;;;;;8.50;76.20;;;;;;5023796;28;19944;-80
2022/11/26 11:37:05;;;;;;;;;;;8.50;76.20;;;;;;5052228;28;19970;-80
2022/11/26 11:39:34;;;;;;;;;;;8.60;76.20;;;;;;5049543;28;20001;-78
2022/11/26 11:42:01;;;;;;;;;;;8.60;76.30;;;;;;5050695;28;19921;-80
2022/11/26 11:44:38;;;;;;;;;;;8.60;76.20;;;;;;5050826;28;19921;-80
2022/11/26 11:47:27;;;;;;;;;;;8.70;76.30;;;;;;5046900;28;19917;-79
2022/11/26 11:49:59;;;;;;;;;;;8.70;76.20;;;;;;5037600;28;19931;-80
2022/11/26 11:52:37;;;;;;;;;;;8.80;76.30;;;;;;5055126;28;19975;-79
2022/11/26 11:55:12;;;;;;;;;;;8.80;76.20;;;;;;5053502;28;20380;-79
2022/11/26 11:57:56;;;;;;;;;;;8.80;76.20;;;;;;5038311;28;19913;-78
2022/11/26 12:00:25;;;;;;;;;;;8.90;76.30;;;;;;5062448;28;20340;-80
2022/11/26 12:03:02;;;;;;;;;;;8.90;76.30;;;;;;5037366;28;20402;-79
2022/11/26 12:05:37;;;;;;;;;;;8.90;76.30;;;;;;5030820;28;20355;-80
2022/11/26 12:08:21;;;;;;;;;;;8.90;76.20;;;;;;5030664;28;20412;-80
2022/11/26 12:10:47;;;;;;;;;;;9.00;76.30;;;;;;5047111;28;20285;-80
2022/11/26 12:13:13;;;;;;;;;;;9.00;76.20;;;;;;5033123;28;19917;-80
2022/11/26 12:15:42;;;;;;;;;;;9.10;76.30;;;;;;5056527;28;19913;-80
2022/11/26 12:18:37;;;;;;;;;;;9.10;76.30;;;;;;5049803;28;19913;-80
2022/11/26 12:21:13;;;;;;;;;;;9.10;76.30;;;;;;5030466;28;19917;-80
2022/11/26 12:23:44;;;;;;;;;;;9.20;76.30;;;;;;5048729;28;20256;-79
2022/11/26 12:26:12;;;;;;;;;;;9.20;76.20;;;;;;5047152;28;19912;-79
2022/11/26 12:28:57;;;;;;;;;;;9.30;76.30;;;;;;5049955;28;20354;-80
2022/11/26 12:31:30;;;;;;;;;;;9.30;76.30;;;;;;5043013;28;19947;-79
2022/11/26 12:34:02;;;;;;;;;;;9.30;76.30;;;;;;5051836;28;20350;-81
2022/11/26 12:36:35;;;;;;;;;;;9.40;76.30;;;;;;5052029;28;19973;-80
2022/11/26 12:39:17;;;;;;;;;;;9.40;76.30;;;;;;5050347;28;20533;-80
2022/11/26 12:41:49;;;;;;;;;;;9.40;76.30;;;;;;5045470;28;19927;-79
2022/11/26 12:44:36;;;;;;;;;;;9.40;76.20;;;;;;5056883;28;19913;-79
2022/11/26 12:47:07;;;;;;;;;;;9.50;76.30;;;;;;5042477;28;19913;-80
2022/11/26 12:49:39;;;;;;;;;;;9.50;76.30;;;;;;5051064;28;19932;-80
2022/11/26 12:52:17;;;;;;;;;;;9.60;76.30;;;;;;5057071;28;19963;-80
2022/11/26 12:54:52;;;;;;;;;;;9.60;76.30;;;;;;5058492;28;20024;-79
2022/11/26 12:57:25;;;;;;;;;;;9.70;76.40;;;;;;5053679;28;19920;-80
2022/11/26 13:00:11;;;;;;;;;;;9.70;76.40;;;;;;5056492;28;20003;-79
2022/11/26 13:02:39;;;;;;;;;;;9.80;76.40;;;;;;5052979;28;20541;-79
2022/11/26 13:05:05;;;;;;;;;;;9.80;76.40;;;;;;5054129;28;19913;-79
2022/11/26 13:07:54;;;;;;;;;;;9.80;76.40;;;;;;5051682;28;20307;-79
2022/11/26 13:10:19;;;;;;;;;;;9.80;76.40;;;;;;5052843;28;19923;-79
2022/11/26 13:12:52;;;;;;;;;;;9.90;76.40;;;;;;5051987;28;20007;-80
2022/11/26 13:15:33;;;;;;;;;;;9.90;76.50;;;;;;5056897;28;19913;-79
2022/11/26 13:17:59;;;;;;;;;;;9.90;76.40;;;;;;5056385;28;20030;-81
2022/11/26 13:20:25;;;;;;;;;;;10.00;76.70;;;;;;5046775;28;19920;-81
2022/11/26 13:22:53;;;;;;;;;;;10.00;76.50;;;;;;5054830;28;19912;-80
2022/11/26 13:25:19;;;;;;;;;;;10.00;76.50;;;;;;5053929;28;20341;-81
2022/11/26 13:27:48;;;;;;;;;;;10.10;76.50;;;;;;5052248;28;19919;-80
2022/11/26 13:30:13;;;;;;;;;;;10.20;76.60;;;;;;5049544;28;19979;-80
2022/11/26 13:32:58;;;;;;;;;;;10.10;76.50;;;;;;5050894;28;20014;-79
2022/11/26 13:35:32;;;;;;;;;;;10.20;76.60;;;;;;5047182;28;19913;-81
2022/11/26 13:38:17;;;;;;;;;;;10.20;76.60;;;;;;5050489;28;20360;-81
2022/11/26 13:40:46;;;;;;;;;;;10.20;76.60;;;;;;5040563;28;19943;-80
2022/11/26 13:43:27;;;;;;;;;;;10.30;76.60;;;;;;5036083;28;20040;-80
2022/11/26 13:45:58;;;;;;;;;;;10.30;76.60;;;;;;5052619;28;19916;-80
2022/11/26 13:48:38;;;;;;;;;;;10.30;76.60;;;;;;5051901;28;19913;-80
2022/11/26 13:51:12;;;;;;;;;;;10.40;76.70;;;;;;5050456;28;19920;-80
2022/11/26 13:53:48;;;;;;;;;;;10.40;76.70;;;;;;5050970;28;19927;-80
2022/11/26 13:56:18;;;;;;;;;;;10.40;76.70;;;;;;5052126;28;19913;-80
2022/11/26 13:58:48;;;;;;;;;;;10.50;76.70;;;;;;5049963;28;20008;-81
2022/11/26 14:01:38;;;;;;;;;;;10.50;76.70;;;;;;5033222;28;19924;-80
2022/11/26 14:04:06;;;;;;;;;;;10.50;76.70;;;;;;5054261;28;19912;-80
2022/11/26 14:06:32;;;;;;;;;;;10.50;76.60;;;;;;5060957;28;19913;-79
2022/11/26 14:08:58;;;;;;;;;;;10.60;76.70;;;;;;5052053;28;19913;-80
2022/11/26 14:11:39;;;;;;;;;;;10.60;76.70;;;;;;5068402;28;19930;-79
2022/11/26 14:14:26;;;;;;;;;;;10.60;76.70;;;;;;5063348;28;20477;-79
2022/11/26 14:17:01;;;;;;;;;;;10.70;76.70;;;;;;5053353;28;19966;-79
2022/11/26 14:19:50;;;;;;;;;;;10.70;76.70;;;;;;5054120;28;19913;-82
2022/11/26 14:22:19;;;;;;;;;;;10.70;76.70;;;;;;5041861;28;20377;-81
2022/11/26 14:24:50;;;;;;;;;;;10.70;76.70;;;;;;5053928;28;19913;-80
2022/11/26 14:27:17;;;;;;;;;;;10.80;76.70;;;;;;5038803;28;19919;-80
2022/11/26 14:29:43;;;;;;;;;;;10.80;76.70;;;;;;5051414;28;19927;-81
2022/11/26 14:32:15;;;;;;;;;;;10.80;76.70;;;;;;5053238;28;20011;-79
2022/11/26 14:34:51;;;;;;;;;;;10.80;76.70;;;;;;5048238;28;19920;-79
2022/11/26 14:37:18;;;;;;;;;;;10.90;76.70;;;;;;5060435;28;20008;-80